Time;durP1;ratioP1;P1;durP2;ratioP2;P2;SDS_P1;SDS_P2;PMS_P1;PMS_P2;Temp;Humidity;BMP_temperature;BMP_pressure;BME280_temperature;BME280_humidity;BME280_pressure;Samples;Min_cycle;Max_cycle;Signal;HPM_P1;HPM_P2
2021/04/07 00:01:38;;;;;;;6.80;1.23;;;0.60;74.10;;;;;;5079313;28;20074;-72
2021/04/07 00:04:04;;;;;;;4.22;1.10;;;0.60;74.20;;;;;;5079192;28;20039;-72
2021/04/07 00:06:34;;;;;;;4.53;1.17;;;0.60;74.60;;;;;;5079474;28;20052;-72
2021/04/07 00:09:00;;;;;;;4.50;1.30;;;0.50;74.70;;;;;;5079126;28;20020;-72
2021/04/07 00:11:26;;;;;;;4.10;1.15;;;0.40;75.00;;;;;;5061389;28;20029;-72
2021/04/07 00:13:52;;;;;;;7.07;2.13;;;0.40;75.50;;;;;;5079095;28;20035;-72
2021/04/07 00:16:17;;;;;;;4.57;1.40;;;0.30;76.10;;;;;;5061301;28;20031;-72
2021/04/07 00:18:43;;;;;;;2.95;1.30;;;0.30;76.00;;;;;;5079240;28;20286;-72
2021/04/07 00:21:09;;;;;;;6.97;2.13;;;0.20;75.60;;;;;;5078924;28;20056;-72
2021/04/07 00:23:34;;;;;;;5.22;1.17;;;0.20;75.90;;;;;;5079294;28;20028;-72
2021/04/07 00:26:00;;;;;;;6.65;1.17;;;0.20;76.20;;;;;;5079154;28;20033;-72
2021/04/07 00:28:26;;;;;;;2.80;1.10;;;0.20;76.10;;;;;;5078842;28;20103;-72
2021/04/07 00:30:51;;;;;;;5.28;1.30;;;0.20;75.70;;;;;;5078759;28;20027;-72
2021/04/07 00:33:17;;;;;;;4.10;1.17;;;0.20;75.60;;;;;;5060878;28;20036;-72
2021/04/07 00:35:43;;;;;;;3.55;1.33;;;0.20;75.50;;;;;;5060885;28;20075;-72
2021/04/07 00:38:11;;;;;;;5.70;1.00;;;0.20;75.70;;;;;;5078630;28;20416;-72
2021/04/07 00:40:38;;;;;;;9.35;1.50;;;0.20;75.60;;;;;;5078533;28;20046;-72
2021/04/07 00:43:05;;;;;;;1.63;1.33;;;0.20;75.50;;;;;;5078504;28;20033;-72
2021/04/07 00:45:31;;;;;;;4.47;1.33;;;0.20;76.40;;;;;;5078375;28;20039;-72
2021/04/07 00:47:57;;;;;;;4.40;1.67;;;0.20;76.70;;;;;;5078425;28;20078;-72
2021/04/07 00:50:25;;;;;;;4.68;1.40;;;0.10;76.60;;;;;;5078212;28;20117;-72
2021/04/07 00:52:51;;;;;;;5.63;1.63;;;0.10;76.70;;;;;;5078537;28;20175;-72
2021/04/07 00:55:28;;;;;;;5.57;1.55;;;0.10;76.90;;;;;;5078396;28;20399;-72
2021/04/07 00:57:55;;;;;;;6.22;1.67;;;0.10;76.90;;;;;;5078177;28;20401;-72
2021/04/07 01:00:21;;;;;;;7.55;1.58;;;0.20;77.10;;;;;;5078212;28;20411;-72
2021/04/07 01:02:51;;;;;;;5.47;2.03;;;0.30;77.30;;;;;;5078593;28;20067;-72
2021/04/07 01:05:17;;;;;;;3.67;1.50;;;0.30;76.90;;;;;;5078124;28;20107;-72
2021/04/07 01:07:42;;;;;;;5.47;1.52;;;0.40;76.40;;;;;;5078005;28;20028;-72
2021/04/07 01:10:11;;;;;;;8.18;2.20;;;0.40;75.80;;;;;;5078048;28;20013;-72
2021/04/07 01:12:37;;;;;;;4.50;1.60;;;0.60;75.60;;;;;;5078181;28;20029;-72
2021/04/07 01:15:05;;;;;;;2.35;1.50;;;0.60;75.50;;;;;;5077953;28;20404;-72
2021/04/07 01:17:31;;;;;;;3.90;2.15;;;0.60;75.60;;;;;;5077828;28;20408;-72
2021/04/07 01:19:57;;;;;;;6.88;2.20;;;0.60;76.30;;;;;;5077798;28;20055;-72
2021/04/07 01:22:24;;;;;;;11.13;2.95;;;0.70;75.80;;;;;;5077683;28;20039;-72
2021/04/07 01:24:50;;;;;;;5.45;2.22;;;0.90;75.50;;;;;;5077697;28;20064;-72
2021/04/07 01:27:17;;;;;;;3.90;2.40;;;0.90;75.30;;;;;;5059927;28;20037;-72
2021/04/07 01:29:43;;;;;;;6.07;2.30;;;1.00;75.10;;;;;;5077604;28;20021;-72
2021/04/07 01:32:09;;;;;;;5.68;2.40;;;1.10;75.10;;;;;;5059809;28;20033;-72
2021/04/07 01:34:43;;;;;;;3.10;2.05;;;1.20;74.80;;;;;;5077325;28;20024;-72
2021/04/07 01:37:10;;;;;;;4.15;2.80;;;1.20;74.90;;;;;;5077726;28;20028;-72
2021/04/07 01:39:36;;;;;;;3.95;2.10;;;1.30;74.80;;;;;;5077579;28;20405;-72
2021/04/07 01:42:02;;;;;;;5.80;1.70;;;1.30;73.30;;;;;;5077335;28;20020;-72
2021/04/07 01:44:28;;;;;;;3.97;2.13;;;1.30;73.20;;;;;;5059525;28;20412;-72
2021/04/07 01:46:56;;;;;;;4.40;2.20;;;1.20;72.40;;;;;;5077373;28;20101;-72
2021/04/07 01:49:24;;;;;;;4.75;2.03;;;1.20;73.30;;;;;;5076979;28;20428;-72
2021/04/07 01:51:50;;;;;;;4.35;2.33;;;1.30;73.50;;;;;;5077362;28;20021;-72
2021/04/07 01:54:16;;;;;;;4.57;2.47;;;1.20;74.10;;;;;;5076961;28;20029;-72
2021/04/07 01:56:47;;;;;;;3.50;2.28;;;1.20;74.00;;;;;;5077121;28;20023;-72
2021/04/07 01:59:14;;;;;;;3.85;1.85;;;1.20;74.00;;;;;;5077314;28;20098;-72
2021/04/07 02:01:39;;;;;;;4.38;2.13;;;1.30;73.60;;;;;;5077035;28;20024;-72
2021/04/07 02:04:05;;;;;;;5.20;2.22;;;1.30;72.50;;;;;;5077021;28;20086;-72
2021/04/07 02:06:31;;;;;;;4.07;2.20;;;1.30;72.50;;;;;;5076943;28;20025;-72
2021/04/07 02:08:57;;;;;;;1.98;1.67;;;1.30;72.40;;;;;;5076947;28;20112;-72
2021/04/07 02:11:23;;;;;;;4.65;1.98;;;1.30;71.70;;;;;;5077205;28;20029;-72
2021/04/07 02:13:49;;;;;;;3.70;1.80;;;1.30;70.70;;;;;;5058987;28;20039;-72
2021/04/07 02:16:16;;;;;;;4.22;2.00;;;1.30;70.00;;;;;;5076264;28;20063;-72
2021/04/07 02:18:43;;;;;;;2.72;1.55;;;1.40;70.20;;;;;;5077084;28;20017;-72
2021/04/07 02:21:10;;;;;;;3.22;1.55;;;1.40;69.00;;;;;;5076783;28;20056;-72
2021/04/07 02:23:37;;;;;;;4.20;1.85;;;1.40;67.70;;;;;;5059129;28;20025;-72
2021/04/07 02:26:07;;;;;;;2.40;1.58;;;1.40;67.50;;;;;;5076973;28;20028;-72
2021/04/07 02:28:34;;;;;;;4.82;2.08;;;1.40;67.40;;;;;;5076764;28;20045;-72
2021/04/07 02:31:00;;;;;;;5.57;2.00;;;1.50;68.80;;;;;;5076687;28;20111;-71
2021/04/07 02:33:26;;;;;;;2.78;1.67;;;1.50;68.00;;;;;;5076596;28;20431;-72
2021/04/07 02:35:52;;;;;;;4.25;1.70;;;1.50;65.80;;;;;;5076789;28;20028;-72
2021/04/07 02:38:18;;;;;;;5.15;1.50;;;1.50;65.90;;;;;;5076920;28;20021;-72
2021/04/07 02:40:44;;;;;;;4.00;1.42;;;1.60;64.00;;;;;;5076610;28;20020;-72
2021/04/07 02:43:10;;;;;;;3.30;1.55;;;1.60;62.40;;;;;;5076581;28;20059;-72
2021/04/07 02:45:36;;;;;;;3.75;1.50;;;1.70;61.20;;;;;;5076554;28;20078;-72
2021/04/07 02:48:02;;;;;;;4.03;1.45;;;1.70;61.60;;;;;;5076515;28;20021;-72
2021/04/07 02:50:28;;;;;;;2.38;1.30;;;1.70;62.80;;;;;;5076345;28;20109;-72
2021/04/07 02:52:54;;;;;;;8.27;1.75;;;1.70;60.90;;;;;;5076491;28;20107;-72
2021/04/07 02:55:20;;;;;;;2.67;1.08;;;1.60;59.50;;;;;;5076315;28;20040;-72
2021/04/07 02:57:46;;;;;;;2.40;1.08;;;1.60;58.20;;;;;;5076463;28;20020;-72
2021/04/07 03:00:12;;;;;;;2.00;0.80;;;1.60;56.70;;;;;;5076410;28;20037;-72
2021/04/07 03:02:38;;;;;;;1.58;1.00;;;1.60;55.80;;;;;;5076921;28;20028;-72
2021/04/07 03:05:05;;;;;;;1.60;0.73;;;1.60;56.30;;;;;;5076406;28;20062;-72
2021/04/07 03:07:31;;;;;;;2.15;0.77;;;1.50;56.10;;;;;;5076334;28;20035;-72
2021/04/07 03:09:57;;;;;;;4.35;1.00;;;1.50;55.40;;;;;;5076292;28;20328;-72
2021/04/07 03:12:23;;;;;;;1.75;0.80;;;1.50;54.50;;;;;;5076498;28;20023;-72
2021/04/07 03:14:49;;;;;;;2.80;1.10;;;1.60;53.20;;;;;;5076240;28;20298;-72
2021/04/07 03:17:14;;;;;;;1.08;0.60;;;1.60;55.00;;;;;;5076264;28;20025;-71
2021/04/07 03:19:40;;;;;;;1.10;0.40;;;1.60;52.60;;;;;;5058527;28;20032;-72
2021/04/07 03:22:06;;;;;;;0.75;0.50;;;1.60;48.80;;;;;;5076414;28;20025;-72
2021/04/07 03:24:31;;;;;;;4.00;0.50;;;1.60;46.60;;;;;;5076098;28;20424;-72
2021/04/07 03:26:58;;;;;;;0.82;0.47;;;1.70;50.40;;;;;;5076894;28;20448;-72
2021/04/07 03:29:23;;;;;;;1.50;0.47;;;1.70;46.30;;;;;;5080183;28;20069;-72
2021/04/07 03:31:49;;;;;;;1.65;0.40;;;1.70;44.30;;;;;;5079878;28;20103;-72
2021/04/07 03:34:15;;;;;;;0.77;0.50;;;1.80;44.60;;;;;;5079748;28;20030;-72
2021/04/07 03:36:41;;;;;;;1.88;0.77;;;1.90;44.50;;;;;;5079736;28;20412;-72
2021/04/07 03:39:06;;;;;;;2.60;1.23;;;2.00;44.80;;;;;;5079695;28;20021;-72
2021/04/07 03:41:32;;;;;;;2.03;0.60;;;2.10;46.30;;;;;;5079666;28;20029;-72
2021/04/07 03:43:58;;;;;;;0.70;0.45;;;2.10;47.40;;;;;;5079580;28;20025;-72
2021/04/07 03:46:23;;;;;;;3.28;0.90;;;2.10;42.60;;;;;;5061835;28;20024;-72
2021/04/07 03:48:49;;;;;;;1.58;0.70;;;2.20;46.80;;;;;;5079386;28;20020;-72
2021/04/07 03:51:15;;;;;;;1.30;0.75;;;2.30;45.40;;;;;;5079738;28;20071;-72
2021/04/07 03:53:41;;;;;;;1.55;0.60;;;2.40;45.40;;;;;;5079237;28;20037;-72
2021/04/07 03:56:07;;;;;;;1.52;0.70;;;2.40;44.50;;;;;;5079649;28;20025;-72
2021/04/07 03:58:32;;;;;;;1.35;0.60;;;2.50;48.10;;;;;;5079422;28;20031;-72
2021/04/07 04:01:00;;;;;;;2.58;0.75;;;2.50;48.00;;;;;;5079361;28;20327;-72
2021/04/07 04:03:26;;;;;;;1.75;0.70;;;2.50;45.60;;;;;;5079461;28;20020;-72
2021/04/07 04:05:51;;;;;;;2.70;0.65;;;2.50;42.60;;;;;;5061470;28;20322;-72
2021/04/07 04:08:18;;;;;;;1.85;0.98;;;2.60;41.80;;;;;;5079204;28;20107;-72
2021/04/07 04:10:44;;;;;;;1.83;0.70;;;2.70;42.70;;;;;;5079107;28;20038;-72
2021/04/07 04:13:10;;;;;;;1.77;0.80;;;2.70;44.50;;;;;;5079043;28;20028;-72
2021/04/07 04:15:36;;;;;;;2.95;0.80;;;2.70;42.20;;;;;;5061183;28;20029;-72
2021/04/07 04:18:04;;;;;;;2.67;0.82;;;2.80;44.50;;;;;;5079482;28;20115;-72
2021/04/07 04:20:30;;;;;;;1.17;0.70;;;2.70;48.60;;;;;;5079273;28;20016;-72
2021/04/07 04:22:56;;;;;;;9.63;1.35;;;2.70;47.20;;;;;;5079171;28;20055;-72
2021/04/07 04:25:23;;;;;;;3.67;1.10;;;2.60;47.70;;;;;;5061001;28;20024;-71
2021/04/07 04:27:49;;;;;;;1.67;0.85;;;2.50;47.90;;;;;;5061122;28;20031;-72
2021/04/07 04:30:17;;;;;;;3.10;1.10;;;2.50;48.40;;;;;;5078928;28;20048;-72
2021/04/07 04:32:43;;;;;;;1.38;0.75;;;2.50;46.30;;;;;;5078745;28;20095;-72
2021/04/07 04:35:10;;;;;;;1.73;0.80;;;2.50;45.30;;;;;;5060831;28;20048;-72
2021/04/07 04:37:37;;;;;;;8.25;1.00;;;2.50;47.00;;;;;;5078615;28;20025;-72
2021/04/07 04:40:05;;;;;;;2.25;1.08;;;2.60;46.60;;;;;;5078154;28;20020;-72
2021/04/07 04:42:30;;;;;;;2.00;0.70;;;2.60;46.30;;;;;;5078535;28;20125;-72
2021/04/07 04:44:56;;;;;;;1.48;0.80;;;2.70;44.00;;;;;;5060962;28;20481;-72
2021/04/07 04:47:22;;;;;;;2.08;0.93;;;2.70;43.30;;;;;;5060720;28;20036;-72
2021/04/07 04:49:47;;;;;;;2.40;0.85;;;2.70;43.10;;;;;;5078342;28;20144;-71
2021/04/07 04:52:13;;;;;;;2.20;0.80;;;2.80;43.40;;;;;;5078555;28;20033;-71
2021/04/07 04:54:39;;;;;;;6.38;2.88;;;2.80;42.60;;;;;;5078303;28;20028;-72
2021/04/07 04:57:05;;;;;;;6.97;1.00;;;2.80;41.10;;;;;;5060576;28;20052;-72
2021/04/07 04:59:30;;;;;;;1.90;0.70;;;2.90;43.60;;;;;;5078284;28;20324;-72
2021/04/07 05:01:56;;;;;;;1.67;0.60;;;2.80;41.50;;;;;;5060486;28;20526;-72
2021/04/07 05:04:22;;;;;;;2.20;0.93;;;2.80;42.50;;;;;;5078135;28;20032;-72
2021/04/07 05:06:47;;;;;;;1.17;0.47;;;2.80;43.50;;;;;;5078328;28;20032;-72
2021/04/07 05:09:13;;;;;;;4.63;0.93;;;2.70;41.90;;;;;;5078201;28;20386;-72
2021/04/07 05:11:39;;;;;;;70.10;5.40;;;2.70;43.30;;;;;;5077999;28;20024;-72
2021/04/07 05:14:05;;;;;;;2.50;0.75;;;2.60;42.50;;;;;;5060079;28;20059;-72
2021/04/07 05:16:32;;;;;;;1.75;0.90;;;2.60;44.40;;;;;;5077841;28;20423;-72
2021/04/07 05:18:59;;;;;;;0.90;0.60;;;2.60;46.40;;;;;;5060117;28;20028;-71
2021/04/07 05:21:24;;;;;;;1.20;0.57;;;2.70;43.70;;;;;;5078163;28;20025;-72
2021/04/07 05:23:50;;;;;;;1.83;0.80;;;2.70;44.40;;;;;;5077549;28;20440;-72
2021/04/07 05:26:16;;;;;;;1.02;0.50;;;2.70;44.20;;;;;;5077700;28;20033;-73
2021/04/07 05:28:42;;;;;;;1.42;0.60;;;2.80;47.00;;;;;;5077672;28;20406;-74
2021/04/07 05:31:09;;;;;;;1.38;0.70;;;2.80;46.80;;;;;;5077490;28;20069;-74
2021/04/07 05:33:37;;;;;;;2.08;0.80;;;2.80;42.70;;;;;;5077464;28;20362;-74
2021/04/07 05:36:06;;;;;;;1.10;0.60;;;2.90;42.50;;;;;;5077411;28;20159;-74
2021/04/07 05:38:32;;;;;;;0.77;0.65;;;3.00;41.90;;;;;;5077991;28;20423;-72
2021/04/07 05:40:59;;;;;;;1.13;0.60;;;3.20;41.00;;;;;;5077352;28;20024;-72
2021/04/07 05:43:26;;;;;;;1.45;0.52;;;3.30;44.30;;;;;;5077284;28;20290;-72
2021/04/07 05:45:52;;;;;;;1.33;0.50;;;3.40;45.20;;;;;;5077598;28;20039;-72
2021/04/07 05:48:19;;;;;;;1.48;0.73;;;3.30;40.90;;;;;;5077173;28;20031;-72
2021/04/07 05:50:47;;;;;;;2.53;0.90;;;3.30;43.70;;;;;;5076266;28;20048;-72
2021/04/07 05:53:13;;;;;;;3.22;0.95;;;3.30;45.90;;;;;;5077426;28;20038;-72
2021/04/07 05:55:46;;;;;;;3.72;1.50;;;3.40;48.10;;;;;;5077078;28;20028;-72
2021/04/07 05:58:12;;;;;;;1.95;1.00;;;3.20;51.60;;;;;;5077137;28;20109;-72
2021/04/07 06:00:40;;;;;;;3.63;1.00;;;3.00;51.80;;;;;;5077066;28;20082;-72
2021/04/07 06:03:06;;;;;;;1.08;0.70;;;3.00;47.30;;;;;;5077039;28;20031;-72
2021/04/07 06:05:34;;;;;;;1.13;0.77;;;3.20;45.90;;;;;;5076918;28;20039;-72
2021/04/07 06:08:00;;;;;;;1.55;0.90;;;3.30;44.50;;;;;;5076979;28;20099;-72
2021/04/07 06:10:28;;;;;;;1.35;0.60;;;3.50;42.00;;;;;;5076956;28;20059;-72
2021/04/07 06:12:54;;;;;;;5.80;0.90;;;3.60;44.10;;;;;;5076900;28;20025;-72
2021/04/07 06:15:20;;;;;;;0.98;0.68;;;3.70;47.80;;;;;;5076793;28;20078;-72
2021/04/07 06:18:07;;;;;;;1.85;0.70;;;3.70;45.60;;;;;;5076872;28;20029;-72
2021/04/07 06:20:34;;;;;;;0.90;0.50;;;3.80;44.10;;;;;;5077150;28;20102;-72
2021/04/07 06:23:00;;;;;;;1.17;0.40;;;3.90;43.80;;;;;;5077060;28;20028;-72
2021/04/07 06:25:26;;;;;;;0.80;0.50;;;4.00;40.40;;;;;;5076685;28;20043;-72
2021/04/07 06:27:54;;;;;;;1.08;0.52;;;4.10;39.10;;;;;;5076767;28;20039;-72
2021/04/07 06:30:40;;;;;;;3.45;0.70;;;4.10;40.80;;;;;;5076765;28;20027;-72
2021/04/07 06:33:09;;;;;;;2.83;1.00;;;4.20;43.70;;;;;;5077216;28;20061;-72
2021/04/07 06:35:35;;;;;;;2.35;0.88;;;4.10;44.60;;;;;;5076567;28;20024;-72
2021/04/07 06:38:01;;;;;;;1.98;0.90;;;4.00;45.00;;;;;;5076877;28;20032;-72
2021/04/07 06:40:28;;;;;;;5.50;1.20;;;3.90;47.90;;;;;;5076637;28;20118;-72
2021/04/07 06:42:55;;;;;;;2.88;1.10;;;3.90;47.20;;;;;;5059212;28;20028;-72
2021/04/07 06:45:21;;;;;;;2.08;1.10;;;3.80;49.20;;;;;;5076557;28;20028;-72
2021/04/07 06:47:50;;;;;;;2.63;1.08;;;3.80;49.70;;;;;;5076526;28;20056;-72
2021/04/07 06:50:16;;;;;;;1.90;1.20;;;4.00;47.80;;;;;;5076389;28;20336;-72
2021/04/07 06:52:43;;;;;;;1.20;0.80;;;4.00;49.20;;;;;;5076668;28;20027;-72
2021/04/07 06:55:10;;;;;;;2.00;0.90;;;3.90;48.00;;;;;;5076362;28;20408;-72
2021/04/07 06:57:36;;;;;;;1.65;0.82;;;3.90;48.30;;;;;;5076654;28;20021;-72
2021/04/07 07:00:08;;;;;;;0.95;0.60;;;4.10;46.40;;;;;;5076536;28;20024;-72
2021/04/07 07:02:37;;;;;;;1.38;0.70;;;4.20;41.10;;;;;;5060226;28;20094;-72
2021/04/07 07:05:03;;;;;;;1.63;0.73;;;4.40;39.00;;;;;;5080376;28;20082;-72
2021/04/07 07:07:30;;;;;;;0.80;0.50;;;4.60;37.30;;;;;;5062581;28;20048;-72
2021/04/07 07:09:56;;;;;;;1.52;0.70;;;4.60;31.60;;;;;;5080348;28;20024;-72
2021/04/07 07:12:23;;;;;;;0.77;0.40;;;4.70;39.10;;;;;;5062472;28;20029;-72
2021/04/07 07:14:49;;;;;;;0.85;0.45;;;4.90;37.90;;;;;;5080163;28;20024;-72
2021/04/07 07:17:33;;;;;;;1.65;0.60;;;5.00;32.80;;;;;;5080451;28;20420;-72
2021/04/07 07:19:59;;;;;;;1.17;0.68;;;5.10;30.90;;;;;;5080161;28;20032;-72
2021/04/07 07:22:26;;;;;;;1.25;0.70;;;5.30;34.50;;;;;;5080284;28;20012;-72
2021/04/07 07:24:57;;;;;;;2.03;0.70;;;5.50;34.70;;;;;;5079940;28;20436;-72
2021/04/07 07:27:43;;;;;;;1.55;0.65;;;5.80;36.00;;;;;;5062247;28;20360;-72
2021/04/07 07:30:12;;;;;;;11.55;6.80;;;6.20;38.00;;;;;;5080047;28;20028;-72
2021/04/07 07:32:40;;;;;;;2.00;1.08;;;7.00;43.70;;;;;;5079900;28;20027;-72
2021/04/07 07:35:15;;;;;;;2.38;1.33;;;7.90;38.60;;;;;;5079682;28;20028;-72
2021/04/07 07:37:42;;;;;;;1.67;1.20;;;8.80;35.70;;;;;;5062055;28;20024;-72
2021/04/07 07:40:24;;;;;;;4.38;2.22;;;9.50;36.20;;;;;;5079774;28;20032;-72
2021/04/07 07:42:50;;;;;;;2.42;1.23;;;10.20;36.70;;;;;;5079907;28;20021;-72
2021/04/07 07:45:30;;;;;;;4.05;1.45;;;10.60;34.40;;;;;;5079580;28;20039;-72
2021/04/07 07:48:13;;;;;;;5.00;1.92;;;11.10;31.40;;;;;;5079838;28;20143;-72
2021/04/07 07:50:44;;;;;;;4.00;2.00;;;11.50;37.80;;;;;;5079362;28;20463;-72
2021/04/07 07:53:23;;;;;;;4.90;2.42;;;11.90;38.90;;;;;;5079835;28;20020;-72
2021/04/07 07:55:51;;;;;;;3.28;1.90;;;12.00;37.70;;;;;;5079376;28;20032;-72
2021/04/07 07:58:18;;;;;;;2.10;1.30;;;12.50;37.80;;;;;;5079615;28;20095;-72
2021/04/07 08:00:43;;;;;;;2.50;1.50;;;12.90;34.00;;;;;;5079370;28;20031;-72
2021/04/07 08:03:14;;;;;;;4.30;2.00;;;13.30;34.00;;;;;;5079567;28;20021;-72
2021/04/07 08:05:44;;;;;;;7.13;3.00;;;13.10;36.10;;;;;;5061554;28;20052;-72
2021/04/07 08:08:11;;;;;;;4.45;2.90;;;13.10;41.30;;;;;;5079244;28;20023;-72
2021/04/07 08:10:38;;;;;;;9.32;3.13;;;13.00;43.20;;;;;;5079237;28;20490;-72
2021/04/07 08:13:08;;;;;;;5.75;3.88;;;12.90;43.50;;;;;;5079023;28;20016;-72
2021/04/07 08:15:33;;;;;;;6.80;3.88;;;12.50;43.70;;;;;;5078195;28;20024;-72
2021/04/07 08:17:59;;;;;;;5.18;3.80;;;12.60;43.80;;;;;;5078996;28;20032;-72
2021/04/07 08:20:26;;;;;;;7.75;3.35;;;12.80;43.70;;;;;;5079052;28;20029;-72
2021/04/07 08:22:54;;;;;;;6.35;3.08;;;12.60;42.30;;;;;;5079256;28;20286;-72
2021/04/07 08:25:21;;;;;;;7.93;2.83;;;12.80;42.80;;;;;;5061054;28;20068;-72
2021/04/07 08:27:51;;;;;;;4.45;2.53;;;12.70;41.20;;;;;;5078811;28;20111;-72
2021/04/07 08:30:18;;;;;;;8.95;2.65;;;13.10;41.40;;;;;;5078834;28;20099;-72
2021/04/07 08:32:46;;;;;;;3.38;2.63;;;13.60;41.00;;;;;;5061058;28;20476;-72
2021/04/07 08:35:13;;;;;;;4.20;2.50;;;14.10;39.20;;;;;;5078608;28;20021;-72
2021/04/07 08:37:38;;;;;;;4.80;2.95;;;14.20;38.60;;;;;;5078794;28;20101;-72
2021/04/07 08:40:16;;;;;;;3.95;2.80;;;13.80;41.00;;;;;;5078823;28;20024;-72
2021/04/07 08:42:43;;;;;;;5.28;3.25;;;12.40;42.30;;;;;;5078596;28;20024;-72
2021/04/07 08:45:11;;;;;;;7.20;3.17;;;11.10;43.80;;;;;;5078494;28;20036;-72
2021/04/07 08:47:45;;;;;;;5.93;3.40;;;9.90;47.00;;;;;;5078771;28;20312;-72
2021/04/07 08:50:15;;;;;;;5.35;3.13;;;9.30;47.20;;;;;;5078322;28;20067;-72
2021/04/07 08:52:49;;;;;;;7.55;3.55;;;9.50;48.00;;;;;;5078692;28;20039;-72
2021/04/07 08:55:28;;;;;;;4.10;2.75;;;10.10;48.60;;;;;;5078198;28;20037;-72
2021/04/07 08:58:00;;;;;;;4.35;3.13;;;10.60;47.50;;;;;;5078520;28;20027;-72
2021/04/07 09:00:28;;;;;;;7.25;3.40;;;10.60;45.40;;;;;;5078225;28;20057;-72
2021/04/07 09:02:56;;;;;;;4.80;3.50;;;10.20;45.50;;;;;;5078162;28;20440;-72
2021/04/07 09:05:38;;;;;;;6.68;2.92;;;10.10;47.90;;;;;;5060581;28;20058;-72
2021/04/07 09:08:06;;;;;;;9.35;3.05;;;10.50;48.10;;;;;;5078082;28;20025;-72
2021/04/07 09:10:42;;;;;;;5.38;2.90;;;11.50;45.60;;;;;;5078058;28;20025;-72
2021/04/07 09:13:09;;;;;;;4.85;3.30;;;12.20;44.10;;;;;;5078297;28;20361;-72
2021/04/07 09:15:47;;;;;;;13.90;2.67;;;11.70;43.80;;;;;;5077811;28;20329;-72
2021/04/07 09:18:14;;;;;;;3.95;2.47;;;10.90;44.60;;;;;;5077894;28;20025;-72
2021/04/07 09:20:44;;;;;;;4.47;2.65;;;10.80;45.80;;;;;;5077756;28;20062;-72
2021/04/07 09:23:15;;;;;;;7.63;3.35;;;10.50;46.50;;;;;;5060139;28;20029;-72
2021/04/07 09:25:49;;;;;;;2.17;1.00;;;10.90;44.20;;;;;;5077599;28;20040;-72
2021/04/07 09:28:15;;;;;;;2.85;1.13;;;11.60;32.00;;;;;;5077712;28;20115;-72
2021/04/07 09:30:48;;;;;;;2.15;0.90;;;13.10;34.20;;;;;;5077658;28;20096;-72
2021/04/07 09:33:16;;;;;;;2.20;1.40;;;13.90;29.60;;;;;;5077524;28;20025;-72
2021/04/07 09:35:52;;;;;;;3.15;1.70;;;13.70;34.30;;;;;;5077495;28;20028;-72
2021/04/07 09:38:17;;;;;;;;;;;13.30;36.60;;;;;;5078184;28;20343;-72
2021/04/07 09:40:43;;;;;;;4.67;2.17;;;13.30;34.90;;;;;;5077478;28;19911;-72
2021/04/07 09:43:09;;;;;;;3.95;2.13;;;13.00;37.60;;;;;;5059649;28;20317;-72
2021/04/07 09:45:35;;;;;;;6.45;2.30;;;12.40;36.70;;;;;;5077264;28;20032;-72
2021/04/07 09:48:02;;;;;;;3.95;1.83;;;11.50;39.50;;;;;;5077317;28;20033;-72
2021/04/07 09:50:30;;;;;;;4.30;1.90;;;10.70;37.70;;;;;;5077052;28;20076;-72
2021/04/07 09:52:56;;;;;;;6.65;2.30;;;10.20;38.30;;;;;;5077495;28;20027;-72
2021/04/07 09:55:23;;;;;;;2.83;2.05;;;9.80;40.80;;;;;;5077006;28;20056;-72
2021/04/07 09:58:00;;;;;;;4.70;2.20;;;9.10;41.30;;;;;;5077143;28;20024;-72
2021/04/07 10:00:29;;;;;;;2.92;1.80;;;8.80;44.30;;;;;;5077167;28;20024;-72
2021/04/07 10:02:56;;;;;;;5.95;1.67;;;8.50;43.30;;;;;;5077071;28;20024;-72
2021/04/07 10:05:29;;;;;;;1.65;0.73;;;8.10;36.80;;;;;;5077030;28;20025;-72
2021/04/07 10:08:23;;;;;;;3.03;0.90;;;8.60;31.40;;;;;;5077060;28;20031;-72
2021/04/07 10:10:48;;;;;;;1.08;0.50;;;10.00;29.10;;;;;;5077192;28;20060;-72
2021/04/07 10:13:15;;;;;;;1.42;0.55;;;9.80;26.20;;;;;;5075174;28;20381;-72
2021/04/07 10:15:40;;;;;;;0.90;0.60;;;9.10;26.40;;;;;;5083821;28;20074;-72
2021/04/07 10:18:08;;;;;;;1.60;1.10;;;8.60;28.50;;;;;;5097305;28;20020;-72
2021/04/07 10:20:37;;;;;;;1.15;0.57;;;9.00;27.80;;;;;;5079170;28;20031;-72
2021/04/07 10:23:08;;;;;;;1.67;0.70;;;9.10;28.60;;;;;;5097306;28;20304;-72
2021/04/07 10:25:34;;;;;;;1.15;0.60;;;8.80;31.70;;;;;;5096927;28;20032;-72
2021/04/07 10:28:00;;;;;;;3.67;1.75;;;8.80;31.10;;;;;;5079045;28;20031;-72
2021/04/07 10:30:26;;;;;;;6.43;2.35;;;8.80;38.80;;;;;;5096972;28;20028;-72
2021/04/07 10:32:58;;;;;;;4.00;2.35;;;8.40;44.30;;;;;;5096922;28;20086;-72
2021/04/07 10:35:27;;;;;;;6.00;2.60;;;8.20;41.40;;;;;;5096769;28;20028;-72
2021/04/07 10:38:12;;;;;;;6.00;2.55;;;8.20;43.40;;;;;;5096372;28;20020;-72
2021/04/07 10:40:40;;;;;;;7.75;3.28;;;7.80;45.90;;;;;;5096856;28;20028;-72
2021/04/07 10:43:17;;;;;;;4.70;2.85;;;7.60;46.60;;;;;;5096834;28;20047;-72
2021/04/07 10:45:44;;;;;;;7.03;2.78;;;7.50;47.50;;;;;;5096757;28;20106;-72
2021/04/07 10:48:10;;;;;;;4.65;2.50;;;7.50;47.00;;;;;;5096748;28;20354;-72
2021/04/07 10:50:39;;;;;;;4.35;2.40;;;7.40;47.60;;;;;;5096633;28;20462;-72
2021/04/07 10:53:05;;;;;;;4.55;2.42;;;7.60;44.60;;;;;;5096953;28;20050;-72
2021/04/07 10:55:32;;;;;;;5.68;2.50;;;7.70;46.50;;;;;;5096555;28;20032;-72
2021/04/07 10:57:59;;;;;;;4.13;2.78;;;7.70;46.70;;;;;;5097019;28;20408;-72
2021/04/07 11:00:33;;;;;;;4.18;0.85;;;8.70;46.20;;;;;;5096669;28;20073;-72
2021/04/07 11:02:59;;;;;;;2.28;0.90;;;9.60;33.10;;;;;;5096614;28;20081;-72
2021/04/07 11:05:27;;;;;;;2.30;1.42;;;9.80;32.00;;;;;;5096544;28;20028;-72
2021/04/07 11:08:01;;;;;;;2.13;1.20;;;9.90;35.80;;;;;;5096637;28;20028;-72
2021/04/07 11:10:27;;;;;;;4.53;2.33;;;9.90;31.90;;;;;;5096644;28;20020;-72
2021/04/07 11:12:53;;;;;;;4.15;1.83;;;10.70;39.10;;;;;;5078648;28;20024;-72
2021/04/07 11:15:19;;;;;;;4.30;2.20;;;12.20;36.20;;;;;;5096398;28;20020;-72
2021/04/07 11:17:53;;;;;;;4.03;2.30;;;13.50;35.40;;;;;;5096523;28;20021;-72
2021/04/07 11:20:20;;;;;;;4.47;2.22;;;14.60;33.40;;;;;;5096533;28;20073;-72
2021/04/07 11:22:46;;;;;;;1.00;0.60;;;15.10;34.80;;;;;;5096689;28;20016;-73
2021/04/07 11:25:12;;;;;;;1.58;0.80;;;15.20;24.60;;;;;;5096426;28;20032;-72
2021/04/07 11:27:37;;;;;;;1.65;0.60;;;14.00;25.30;;;;;;5096605;28;20020;-72
2021/04/07 11:30:05;;;;;;;1.80;0.70;;;12.30;26.40;;;;;;5096472;28;20089;-72
2021/04/07 11:32:33;;;;;;;0.85;0.50;;;11.40;28.80;;;;;;5078485;28;20030;-72
2021/04/07 11:35:08;;;;;;;1.70;0.57;;;10.50;26.40;;;;;;5096202;28;20020;-72
2021/04/07 11:40:21;;;;;;;1.50;0.52;;;9.30;29.30;;;;;;5096669;28;20439;-72
2021/04/07 11:43:03;;;;;;;;;;;9.20;27.70;;;;;;5097126;28;20362;-72
2021/04/07 11:45:29;;;;;;;1.08;0.60;;;9.20;28.10;;;;;;5096158;28;19998;-72
2021/04/07 11:47:55;;;;;;;0.90;0.50;;;9.00;26.10;;;;;;5096229;28;20052;-72
2021/04/07 11:50:20;;;;;;;1.20;0.50;;;8.80;26.90;;;;;;5098567;28;20051;-72
2021/04/07 11:52:46;;;;;;;2.72;0.80;;;8.90;28.30;;;;;;5099876;28;20082;-72
2021/04/07 11:55:12;;;;;;;2.92;0.65;;;8.90;26.00;;;;;;5099570;28;20111;-72
2021/04/07 11:57:38;;;;;;;1.08;0.47;;;9.00;26.50;;;;;;5099783;28;20024;-72
2021/04/07 12:00:09;;;;;;;0.85;0.55;;;9.10;28.00;;;;;;5099781;28;20031;-72
2021/04/07 12:02:37;;;;;;;1.75;0.90;;;8.80;25.40;;;;;;5099949;28;20020;-72
2021/04/07 12:05:03;;;;;;;1.52;0.55;;;8.90;28.50;;;;;;5099523;28;20020;-72
2021/04/07 12:07:28;;;;;;;1.42;0.52;;;9.00;25.90;;;;;;5099709;28;20020;-72
2021/04/07 12:09:54;;;;;;;1.88;0.60;;;8.90;27.00;;;;;;5099513;28;20414;-72
2021/04/07 12:12:20;;;;;;;2.28;0.55;;;8.80;27.60;;;;;;5099973;28;20174;-72
2021/04/07 12:14:45;;;;;;;1.17;0.50;;;9.00;25.90;;;;;;5099710;28;20028;-72
2021/04/07 12:17:11;;;;;;;1.08;0.40;;;8.90;24.10;;;;;;5099602;28;20053;-72
2021/04/07 12:19:37;;;;;;;3.00;0.50;;;9.10;22.90;;;;;;5081428;28;20020;-72
2021/04/07 12:22:03;;;;;;;1.45;0.50;;;9.50;26.50;;;;;;5099297;28;20016;-72
2021/04/07 12:24:29;;;;;;;0.70;0.30;;;9.80;24.10;;;;;;5081250;28;20051;-72
2021/04/07 12:26:56;;;;;;;1.15;0.30;;;9.90;22.50;;;;;;5099202;28;20024;-72
2021/04/07 12:29:23;;;;;;;1.48;0.32;;;10.10;24.60;;;;;;5099154;28;20032;-72
2021/04/07 12:31:49;;;;;;;1.42;0.55;;;10.40;24.90;;;;;;5099121;28;20119;-72
2021/04/07 12:34:15;;;;;;;1.25;0.52;;;10.80;24.00;;;;;;5098913;28;20024;-72
2021/04/07 12:36:41;;;;;;;3.72;0.55;;;10.60;22.20;;;;;;5099220;28;20024;-72
2021/04/07 12:39:07;;;;;;;1.88;0.47;;;10.30;23.80;;;;;;5099858;28;20373;-72
2021/04/07 12:44:08;;;;;;;1.50;0.60;;;9.30;23.80;;;;;;5099101;28;20032;-72
2021/04/07 12:46:33;;;;;;;1.27;0.63;;;8.90;23.20;;;;;;5099008;28;20024;-72
2021/04/07 12:48:59;;;;;;;1.50;0.55;;;8.70;23.60;;;;;;5098596;28;20023;-72
2021/04/07 12:51:25;;;;;;;1.23;0.55;;;8.60;25.00;;;;;;5098970;28;20073;-72
2021/04/07 12:53:51;;;;;;;1.65;0.38;;;8.50;25.90;;;;;;5099074;28;20040;-72
2021/04/07 12:56:19;;;;;;;1.95;0.90;;;8.70;25.50;;;;;;5098561;28;20515;-72
2021/04/07 12:58:46;;;;;;;0.95;0.43;;;8.80;25.00;;;;;;5098844;28;20396;-72
2021/04/07 13:01:12;;;;;;;0.82;0.35;;;8.80;25.50;;;;;;5098099;28;20032;-72
2021/04/07 13:03:39;;;;;;;2.55;0.45;;;8.60;22.80;;;;;;5098422;28;20028;-72